Las Cruces, New Mexico
Current Conditions -  °F | °C
As of 9:35 AM on Wednesday 22 Oct 2014 (Local Time) from KLRU Reporting Station
Clear Clear  
Wind Chill: 63°   Ceiling: Unl
Heat Index: 63°   Visibility: 10mi
Dew Point: 55°   Wind: 5mph
Humidity: 76%   Direction: 130°SE
Pressure: 30.18"   Gusts: NA
Location:  32.31°N, 106.77°W
Report Text: KLRU 221535Z AUTO 13004KT 10SM CLR 17/13 A3018 RMK AO2 T01700127
Loading
Personal Weather Stations






























Interactive Weather Map
Tropical Storm Tracking
New forecast layout! Learn more

10-Day Weather Forecast

Advertisements
Track Severe Weather on mobile